Time;durP1;ratioP1;P1;durP2;ratioP2;P2;SDS_P1;SDS_P2;PMS_P1;PMS_P2;Temp;Humidity;BMP_temperature;BMP_pressure;BME280_temperature;BME280_humidity;BME280_pressure;Samples;Min_cycle;Max_cycle;Signal;HPM_P1;HPM_P2
2023/01/23 00:02:08;;;;;;;16.40;7.50;;;;;;;;;;5069508;28;20124;-60
2023/01/23 00:04:34;;;;;;;14.57;7.63;;;;;;;;;;5070120;28;20040;-61
2023/01/23 00:07:02;;;;;;;13.40;7.00;;;;;;;;;;5067906;28;20054;-61
2023/01/23 00:09:28;;;;;;;13.70;7.22;;;;;;;;;;5067930;28;20436;-61
2023/01/23 00:11:54;;;;;;;15.23;7.35;;;;;;;;;;5070080;28;20072;-61
2023/01/23 00:14:20;;;;;;;14.50;6.85;;;;;;;;;;5068143;28;20578;-61
2023/01/23 00:16:46;;;;;;;12.60;7.68;;;;;;;;;;5069600;28;20032;-61
2023/01/23 00:19:12;;;;;;;14.07;7.20;;;;;;;;;;5069123;28;20048;-61
2023/01/23 00:21:38;;;;;;;13.43;7.75;;;;;;;;;;5069325;28;20029;-60
2023/01/23 00:24:04;;;;;;;12.77;7.45;;;;;;;;;;5066022;28;20040;-60
2023/01/23 00:26:32;;;;;;;14.32;7.10;;;;;;;;;;5070850;28;20124;-61
2023/01/23 00:28:58;;;;;;;12.00;6.82;;;;;;;;;;5066647;28;20044;-62
2023/01/23 00:31:29;;;;;;;13.02;7.43;;;;;;;;;;5068906;28;20082;-62
2023/01/23 00:34:03;;;;;;;15.57;7.30;;;;;;;;;;5066897;28;20154;-61
2023/01/23 00:36:37;;;;;;;15.05;6.75;;;;;;;;;;5069275;28;20100;-61
2023/01/23 00:39:05;;;;;;;14.35;7.72;;;;;;;;;;5070043;28;20158;-60
2023/01/23 00:41:31;;;;;;;13.30;7.07;;;;;;;;;;5062807;28;20492;-61
2023/01/23 00:44:00;;;;;;;13.20;7.20;;;;;;;;;;5060584;28;20037;-61
2023/01/23 00:46:26;;;;;;;13.25;7.18;;;;;;;;;;5060260;28;20044;-60
2023/01/23 00:48:52;;;;;;;14.90;7.00;;;;;;;;;;5065524;28;20036;-62
2023/01/23 00:51:18;;;;;;;14.27;7.30;;;;;;;;;;5061172;28;20039;-61
2023/01/23 00:53:44;;;;;;;13.07;7.22;;;;;;;;;;5067804;28;20056;-62
2023/01/23 00:56:11;;;;;;;12.73;7.70;;;;;;;;;;5069048;28;20040;-61
2023/01/23 00:58:37;;;;;;;14.43;7.60;;;;;;;;;;5068529;28;20138;-62
2023/01/23 01:01:03;;;;;;;11.63;7.60;;;;;;;;;;5071463;28;20066;-61
2023/01/23 01:03:29;;;;;;;14.90;7.50;;;;;;;;;;5070408;28;20036;-62
2023/01/23 01:05:55;;;;;;;13.27;7.50;;;;;;;;;;5069725;28;20044;-62
2023/01/23 01:08:21;;;;;;;16.23;7.30;;;;;;;;;;5066596;28;20453;-63
2023/01/23 01:10:47;;;;;;;13.82;6.93;;;;;;;;;;5068742;28;20074;-62
2023/01/23 01:13:13;;;;;;;12.60;7.47;;;;;;;;;;5070830;28;20119;-62
2023/01/23 01:15:39;;;;;;;14.68;7.60;;;;;;;;;;5068520;28;20114;-61
2023/01/23 01:18:05;;;;;;;13.38;6.90;;;;;;;;;;5070824;28;20041;-61
2023/01/23 01:20:31;;;;;;;11.45;7.80;;;;;;;;;;5071633;28;20492;-62
2023/01/23 01:22:59;;;;;;;15.75;7.50;;;;;;;;;;5064898;28;20048;-61
2023/01/23 01:25:25;;;;;;;12.57;6.85;;;;;;;;;;5068702;28;20036;-62
2023/01/23 01:27:51;;;;;;;14.63;7.82;;;;;;;;;;5069092;28;20045;-62
2023/01/23 01:30:17;;;;;;;14.15;7.60;;;;;;;;;;5069684;28;20033;-62
2023/01/23 01:32:43;;;;;;;17.00;8.07;;;;;;;;;;5066523;28;20048;-62
2023/01/23 01:35:10;;;;;;;18.25;7.93;;;;;;;;;;5068271;28;20048;-62
2023/01/23 01:37:43;;;;;;;11.90;7.00;;;;;;;;;;5071201;28;20048;-62
2023/01/23 01:40:12;;;;;;;13.52;7.32;;;;;;;;;;5061361;28;20040;-62
2023/01/23 01:42:42;;;;;;;11.23;7.43;;;;;;;;;;5070882;28;20453;-62
2023/01/23 01:45:28;;;;;;;15.02;7.88;;;;;;;;;;5074101;28;20067;-63
2023/01/23 01:47:54;;;;;;;13.80;7.55;;;;;;;;;;5072742;28;20368;-62
2023/01/23 01:50:20;;;;;;;14.13;8.05;;;;;;;;;;5069965;28;20538;-61
2023/01/23 01:52:46;;;;;;;10.95;7.50;;;;;;;;;;5071548;28;20044;-63
2023/01/23 01:55:13;;;;;;;13.75;7.55;;;;;;;;;;5069897;28;20044;-62
2023/01/23 01:57:41;;;;;;;14.23;8.23;;;;;;;;;;5072010;28;20067;-61
2023/01/23 02:00:17;;;;;;;15.40;7.90;;;;;;;;;;5074087;28;20050;-61
2023/01/23 02:02:46;;;;;;;14.45;8.55;;;;;;;;;;5068366;28;20416;-61
2023/01/23 02:05:16;;;;;;;16.77;7.80;;;;;;;;;;5073131;28;20044;-61
2023/01/23 02:07:46;;;;;;;15.52;8.07;;;;;;;;;;5073440;28;20480;-63
2023/01/23 02:10:15;;;;;;;12.57;8.18;;;;;;;;;;5068631;28;20489;-61
2023/01/23 02:12:46;;;;;;;13.68;7.75;;;;;;;;;;5070092;28;20048;-61
2023/01/23 02:15:12;;;;;;;18.30;8.18;;;;;;;;;;5071638;28;20467;-61
2023/01/23 02:17:40;;;;;;;13.70;8.13;;;;;;;;;;5069756;28;20124;-61
2023/01/23 02:20:35;;;;;;;14.15;8.10;;;;;;;;;;5066620;28;20167;-63
2023/01/23 02:23:07;;;;;;;13.55;8.57;;;;;;;;;;5058648;28;20061;-61
2023/01/23 02:25:53;;;;;;;15.82;8.63;;;;;;;;;;5069160;28;20040;-62
2023/01/23 02:28:21;;;;;;;19.35;8.93;;;;;;;;;;5069486;28;20091;-62
2023/01/23 02:30:49;;;;;;;14.88;8.80;;;;;;;;;;5072364;28;20037;-63
2023/01/23 02:33:18;;;;;;;18.98;8.63;;;;;;;;;;5070737;28;20055;-62
2023/01/23 02:35:51;;;;;;;13.45;8.88;;;;;;;;;;5070091;28;20044;-62
2023/01/23 02:38:36;;;;;;;14.93;8.95;;;;;;;;;;5072161;28;20045;-62
2023/01/23 02:41:03;;;;;;;16.88;8.85;;;;;;;;;;5070889;28;20037;-61
2023/01/23 02:43:33;;;;;;;14.43;8.23;;;;;;;;;;5068043;28;20364;-63
2023/01/23 02:46:03;;;;;;;14.98;8.68;;;;;;;;;;5071893;28;20037;-61
2023/01/23 02:48:29;;;;;;;14.57;7.90;;;;;;;;;;5069243;28;20033;-62
2023/01/23 02:50:55;;;;;;;15.32;9.30;;;;;;;;;;5068188;28;20087;-62
2023/01/23 02:53:21;;;;;;;15.48;10.02;;;;;;;;;;5071509;28;20364;-62
2023/01/23 02:55:47;;;;;;;13.60;8.85;;;;;;;;;;5070700;28;20518;-62
2023/01/23 03:00:58;;;;;;;16.35;9.40;;;;;;;;;;5070399;28;20098;-62
2023/01/23 03:03:24;;;;;;;18.38;9.10;;;;;;;;;;5070111;28;20407;-61
2023/01/23 03:05:50;;;;;;;13.23;9.30;;;;;;;;;;5070583;28;20339;-62
2023/01/23 03:08:16;;;;;;;17.08;9.70;;;;;;;;;;5071786;28;20044;-61
2023/01/23 03:10:42;;;;;;;16.50;9.90;;;;;;;;;;5069342;28;20123;-62
2023/01/23 03:13:14;;;;;;;18.80;9.60;;;;;;;;;;5066693;28;20032;-63
2023/01/23 03:15:41;;;;;;;15.15;10.13;;;;;;;;;;5071857;28;20127;-62
2023/01/23 03:18:07;;;;;;;18.70;10.05;;;;;;;;;;5069018;28;20064;-63
2023/01/23 03:20:40;;;;;;;15.05;9.70;;;;;;;;;;5066652;28;20032;-63
2023/01/23 03:23:06;;;;;;;15.10;9.77;;;;;;;;;;5070282;28;20529;-63
2023/01/23 03:25:32;;;;;;;18.00;10.05;;;;;;;;;;5069972;28;20499;-62
2023/01/23 03:27:58;;;;;;;18.63;10.85;;;;;;;;;;5067960;28;20119;-62
2023/01/23 03:30:24;;;;;;;17.50;10.50;;;;;;;;;;5070670;28;20368;-62
2023/01/23 03:32:51;;;;;;;13.88;9.50;;;;;;;;;;5068215;28;20328;-63
2023/01/23 03:35:18;;;;;;;13.77;9.73;;;;;;;;;;5069032;28;20539;-63
2023/01/23 03:37:48;;;;;;;14.20;9.68;;;;;;;;;;5071793;28;20044;-62
2023/01/23 03:42:59;;;;;;;14.30;10.35;;;;;;;;;;5065501;28;20140;-62
2023/01/23 03:45:25;;;;;;;14.55;10.27;;;;;;;;;;5072431;28;20128;-62
2023/01/23 03:47:51;;;;;;;17.38;10.25;;;;;;;;;;5068546;28;20044;-62
2023/01/23 03:50:17;;;;;;;15.18;10.13;;;;;;;;;;5071279;28;20348;-63
2023/01/23 03:52:42;;;;;;;17.67;10.70;;;;;;;;;;5069355;28;20032;-62
2023/01/23 03:55:09;;;;;;;15.57;10.40;;;;;;;;;;5068420;28;20103;-61
2023/01/23 03:57:35;;;;;;;17.63;11.00;;;;;;;;;;5069554;28;20033;-62
2023/01/23 04:00:01;;;;;;;18.73;10.73;;;;;;;;;;5067927;28;20440;-62
2023/01/23 04:02:28;;;;;;;14.48;10.38;;;;;;;;;;5068708;28;20118;-62
2023/01/23 04:04:53;;;;;;;18.55;10.77;;;;;;;;;;5068817;28;20051;-62
2023/01/23 04:07:19;;;;;;;16.50;11.05;;;;;;;;;;5069472;28;20364;-61
2023/01/23 04:09:46;;;;;;;19.17;11.10;;;;;;;;;;5067291;28;20132;-61
2023/01/23 04:12:12;;;;;;;18.70;10.90;;;;;;;;;;5069201;28;20052;-62
2023/01/23 04:14:38;;;;;;;19.17;11.32;;;;;;;;;;5069539;28;20028;-62
2023/01/23 04:17:05;;;;;;;18.38;11.07;;;;;;;;;;5070005;28;20543;-62
2023/01/23 04:19:31;;;;;;;16.40;10.32;;;;;;;;;;5065934;28;20476;-62
2023/01/23 04:21:56;;;;;;;21.15;10.90;;;;;;;;;;5068776;28;20060;-62
2023/01/23 04:24:23;;;;;;;18.00;10.60;;;;;;;;;;5066844;28;20456;-62
2023/01/23 04:26:49;;;;;;;16.63;11.02;;;;;;;;;;5069355;28;20449;-62
2023/01/23 04:29:15;;;;;;;17.98;11.48;;;;;;;;;;5068284;28;20046;-62
2023/01/23 04:31:42;;;;;;;18.80;10.95;;;;;;;;;;5069346;28;20378;-62
2023/01/23 04:34:08;;;;;;;14.95;10.98;;;;;;;;;;5068332;28;20052;-62
2023/01/23 04:36:36;;;;;;;18.58;11.32;;;;;;;;;;5069184;28;20448;-63
2023/01/23 04:39:03;;;;;;;16.48;11.48;;;;;;;;;;5067749;28;20039;-62
2023/01/23 04:41:30;;;;;;;16.08;10.30;;;;;;;;;;5071413;28;20047;-63
2023/01/23 04:44:18;;;;;;;17.05;11.23;;;;;;;;;;5068918;28;20036;-62
2023/01/23 04:46:42;;;;;;;17.70;11.20;;;;;;;;;;5067871;28;20059;-63
2023/01/23 04:49:09;;;;;;;16.83;11.05;;;;;;;;;;5070147;28;20453;-63
2023/01/23 04:51:36;;;;;;;17.52;10.95;;;;;;;;;;5069478;28;20051;-62
2023/01/23 04:54:02;;;;;;;16.50;10.60;;;;;;;;;;5069256;28;20457;-62
2023/01/23 04:56:28;;;;;;;17.10;11.02;;;;;;;;;;5069111;28;20044;-63
2023/01/23 04:58:54;;;;;;;19.35;10.88;;;;;;;;;;5065396;28;20120;-61
2023/01/23 05:01:22;;;;;;;16.33;10.75;;;;;;;;;;5068488;28;20059;-61
2023/01/23 05:03:49;;;;;;;17.60;11.05;;;;;;;;;;5070881;28;20040;-62
2023/01/23 05:06:15;;;;;;;16.73;10.73;;;;;;;;;;5067036;28;20032;-62
2023/01/23 05:08:40;;;;;;;17.88;10.77;;;;;;;;;;5068993;28;20033;-61
2023/01/23 05:11:06;;;;;;;16.60;10.38;;;;;;;;;;5068874;28;20563;-61
2023/01/23 05:13:32;;;;;;;18.67;11.02;;;;;;;;;;5068436;28;20035;-62
2023/01/23 05:15:58;;;;;;;17.52;10.82;;;;;;;;;;5069238;28;20039;-61
2023/01/23 05:18:24;;;;;;;17.73;11.32;;;;;;;;;;5074648;28;20040;-62
2023/01/23 05:20:50;;;;;;;16.33;10.63;;;;;;;;;;5070208;28;20047;-62
2023/01/23 05:23:16;;;;;;;13.93;10.32;;;;;;;;;;5072080;28;20036;-62
2023/01/23 05:25:42;;;;;;;21.77;11.63;;;;;;;;;;5072537;28;20451;-64
2023/01/23 05:28:08;;;;;;;18.15;11.05;;;;;;;;;;5072320;28;20032;-62
2023/01/23 05:30:34;;;;;;;16.33;10.98;;;;;;;;;;5071978;28;20040;-61
2023/01/23 05:33:00;;;;;;;16.85;10.55;;;;;;;;;;5074849;28;20118;-61
2023/01/23 05:35:26;;;;;;;19.90;10.85;;;;;;;;;;5071815;28;20061;-62
2023/01/23 05:37:52;;;;;;;17.58;11.10;;;;;;;;;;5054448;28;20072;-62
2023/01/23 05:40:19;;;;;;;16.33;11.10;;;;;;;;;;5069961;28;20368;-61
2023/01/23 05:42:45;;;;;;;20.20;11.07;;;;;;;;;;5071623;28;20040;-62
2023/01/23 05:45:11;;;;;;;19.73;11.10;;;;;;;;;;5073895;28;20043;-63
2023/01/23 05:47:37;;;;;;;18.50;10.60;;;;;;;;;;5072540;28;20040;-62
2023/01/23 05:50:03;;;;;;;20.00;11.38;;;;;;;;;;5067899;28;20051;-63
2023/01/23 05:52:29;;;;;;;16.08;10.45;;;;;;;;;;5080946;28;20043;-62
2023/01/23 05:54:55;;;;;;;15.52;10.75;;;;;;;;;;5071874;28;20040;-61
2023/01/23 05:57:22;;;;;;;18.67;11.13;;;;;;;;;;5051504;28;20153;-61
2023/01/23 05:59:48;;;;;;;14.98;10.93;;;;;;;;;;5063059;28;20040;-63
2023/01/23 06:02:14;;;;;;;18.15;12.30;;;;;;;;;;5059769;28;20520;-62
2023/01/23 06:04:40;;;;;;;18.52;11.65;;;;;;;;;;5061042;28;20048;-62
2023/01/23 06:07:07;;;;;;;18.75;11.93;;;;;;;;;;5061629;28;20074;-62
2023/01/23 06:09:33;;;;;;;18.05;11.40;;;;;;;;;;5063821;28;20088;-62
2023/01/23 06:11:59;;;;;;;19.23;11.18;;;;;;;;;;5072156;28;20084;-62
2023/01/23 06:14:25;;;;;;;17.95;11.20;;;;;;;;;;5067297;28;20123;-63
2023/01/23 06:16:51;;;;;;;22.33;12.43;;;;;;;;;;5070184;28;20115;-61
2023/01/23 06:19:17;;;;;;;18.90;13.05;;;;;;;;;;5070664;28;20033;-61
2023/01/23 06:21:43;;;;;;;17.45;12.13;;;;;;;;;;5070236;28;21236;-62
2023/01/23 06:24:09;;;;;;;18.65;11.25;;;;;;;;;;5072232;28;20041;-63
2023/01/23 06:26:35;;;;;;;16.17;11.05;;;;;;;;;;5073344;28;20401;-62
2023/01/23 06:29:01;;;;;;;17.13;11.65;;;;;;;;;;5070321;28;20462;-62
2023/01/23 06:31:29;;;;;;;19.80;12.77;;;;;;;;;;5067909;28;20036;-62
2023/01/23 06:33:55;;;;;;;16.60;12.20;;;;;;;;;;5072370;28;20033;-61
2023/01/23 06:36:27;;;;;;;17.60;11.63;;;;;;;;;;5070482;28;20056;-61
2023/01/23 06:38:54;;;;;;;18.37;12.20;;;;;;;;;;5068238;28;20049;-63
2023/01/23 06:41:20;;;;;;;17.05;10.98;;;;;;;;;;5070585;28;20036;-61
2023/01/23 06:43:46;;;;;;;19.25;12.15;;;;;;;;;;5069164;28;20036;-61
2023/01/23 06:46:12;;;;;;;19.90;11.90;;;;;;;;;;5069668;28;20032;-62
2023/01/23 06:48:38;;;;;;;21.42;12.25;;;;;;;;;;5073208;28;20032;-61
2023/01/23 06:51:05;;;;;;;21.05;12.55;;;;;;;;;;5065492;28;20046;-60
2023/01/23 06:53:31;;;;;;;17.13;11.50;;;;;;;;;;5066221;28;20439;-62
2023/01/23 06:56:01;;;;;;;18.20;11.45;;;;;;;;;;5072342;28;20523;-63
2023/01/23 06:58:28;;;;;;;18.80;12.50;;;;;;;;;;5070419;28;20036;-63
2023/01/23 07:00:54;;;;;;;17.35;11.68;;;;;;;;;;5070776;28;20435;-62
2023/01/23 07:03:20;;;;;;;19.48;12.00;;;;;;;;;;5071062;28;20130;-62
2023/01/23 07:05:46;;;;;;;17.02;12.00;;;;;;;;;;5070297;28;20048;-61
2023/01/23 07:08:12;;;;;;;19.10;12.55;;;;;;;;;;5069040;28;20110;-62
2023/01/23 07:10:38;;;;;;;18.92;12.85;;;;;;;;;;5068743;28;20052;-62
2023/01/23 07:13:05;;;;;;;19.35;12.27;;;;;;;;;;5063050;28;20452;-63
2023/01/23 07:15:31;;;;;;;20.58;11.95;;;;;;;;;;5048837;28;20037;-61
2023/01/23 07:17:57;;;;;;;19.85;12.77;;;;;;;;;;5052632;28;20132;-62
2023/01/23 07:20:26;;;;;;;17.92;11.75;;;;;;;;;;5041258;28;20132;-61
2023/01/23 07:22:56;;;;;;;17.42;11.98;;;;;;;;;;5039453;28;20048;-62
2023/01/23 07:25:23;;;;;;;17.52;11.90;;;;;;;;;;5036184;28;20057;-61
2023/01/23 07:27:49;;;;;;;21.92;13.13;;;;;;;;;;5036735;28;20053;-62
2023/01/23 07:30:15;;;;;;;20.50;13.20;;;;;;;;;;5037945;28;20369;-62
2023/01/23 07:32:41;;;;;;;21.58;13.43;;;;;;;;;;5038953;28;20094;-61
2023/01/23 07:35:13;;;;;;;17.50;13.43;;;;;;;;;;5045457;28;20057;-61
2023/01/23 07:37:41;;;;;;;17.17;12.20;;;;;;;;;;5050438;28;20136;-63
2023/01/23 07:40:08;;;;;;;19.40;12.27;;;;;;;;;;5051356;28;20072;-62
2023/01/23 07:42:34;;;;;;;21.48;12.48;;;;;;;;;;5052462;28;20095;-61
2023/01/23 07:45:00;;;;;;;20.33;13.27;;;;;;;;;;5052430;28;20326;-63
2023/01/23 07:47:26;;;;;;;20.48;12.75;;;;;;;;;;5049867;28;20044;-60
2023/01/23 07:49:52;;;;;;;18.40;12.27;;;;;;;;;;5051939;28;20451;-63
2023/01/23 07:52:18;;;;;;;20.10;12.68;;;;;;;;;;5052165;28;20036;-61
2023/01/23 07:54:44;;;;;;;17.90;12.98;;;;;;;;;;5051325;28;20052;-61
2023/01/23 07:57:10;;;;;;;21.52;12.65;;;;;;;;;;5052191;28;20056;-62
2023/01/23 07:59:37;;;;;;;21.08;12.38;;;;;;;;;;5050515;28;20029;-62
2023/01/23 08:02:03;;;;;;;20.77;12.70;;;;;;;;;;5051224;28;20040;-61
2023/01/23 08:04:30;;;;;;;18.55;12.55;;;;;;;;;;5049036;28;20041;-61
2023/01/23 08:06:57;;;;;;;20.02;13.02;;;;;;;;;;5051722;28;20052;-61
2023/01/23 08:09:24;;;;;;;20.67;12.50;;;;;;;;;;5050048;28;20580;-62
2023/01/23 08:11:51;;;;;;;20.63;13.13;;;;;;;;;;5052170;28;20048;-61
2023/01/23 08:14:19;;;;;;;17.98;12.07;;;;;;;;;;5052042;28;20052;-62
2023/01/23 08:16:48;;;;;;;19.80;12.88;;;;;;;;;;5051164;28;20392;-62
2023/01/23 08:19:15;;;;;;;20.25;13.02;;;;;;;;;;5032536;28;20063;-62
2023/01/23 08:21:41;;;;;;;18.63;12.95;;;;;;;;;;5052107;28;20037;-62
2023/01/23 08:24:07;;;;;;;16.75;11.98;;;;;;;;;;5051808;28;20099;-60
2023/01/23 08:26:33;;;;;;;21.42;12.80;;;;;;;;;;5051437;28;20040;-60
2023/01/23 08:28:59;;;;;;;19.35;12.73;;;;;;;;;;5049828;28;20072;-60
2023/01/23 08:31:25;;;;;;;18.67;12.73;;;;;;;;;;5051393;28;20056;-61
2023/01/23 08:33:51;;;;;;;18.48;13.23;;;;;;;;;;5051657;28;20060;-61
2023/01/23 08:36:17;;;;;;;22.25;12.75;;;;;;;;;;5050502;28;20044;-60
2023/01/23 08:38:45;;;;;;;19.65;12.80;;;;;;;;;;5046013;28;20049;-61
2023/01/23 08:41:12;;;;;;;18.08;12.45;;;;;;;;;;5051192;28;20044;-64
2023/01/23 08:43:40;;;;;;;18.60;11.68;;;;;;;;;;5051298;28;20128;-62
2023/01/23 08:46:06;;;;;;;20.10;13.40;;;;;;;;;;5049882;28;20044;-62
2023/01/23 08:48:34;;;;;;;16.58;12.57;;;;;;;;;;5051101;28;20124;-62
2023/01/23 08:51:01;;;;;;;20.58;12.85;;;;;;;;;;5049356;28;20525;-61
2023/01/23 08:53:27;;;;;;;18.23;12.55;;;;;;;;;;5037816;28;20045;-62
2023/01/23 08:55:53;;;;;;;17.88;11.63;;;;;;;;;;5055331;28;20048;-62
2023/01/23 08:58:19;;;;;;;16.73;12.23;;;;;;;;;;5055609;28;20102;-60
2023/01/23 09:00:47;;;;;;;18.15;11.93;;;;;;;;;;5053671;28;20036;-61
2023/01/23 09:03:14;;;;;;;17.33;12.80;;;;;;;;;;5055639;28;20033;-61
2023/01/23 09:05:40;;;;;;;17.92;12.30;;;;;;;;;;5055324;28;20051;-62
2023/01/23 09:08:06;;;;;;;16.80;12.05;;;;;;;;;;5055549;28;20120;-61
2023/01/23 09:10:32;;;;;;;17.08;12.50;;;;;;;;;;5053585;28;20029;-62
2023/01/23 09:12:58;;;;;;;16.55;11.70;;;;;;;;;;5055552;28;20076;-60
2023/01/23 09:15:24;;;;;;;17.35;12.23;;;;;;;;;;5053111;28;20064;-62
2023/01/23 09:17:50;;;;;;;19.45;12.32;;;;;;;;;;5054994;28;20057;-60
2023/01/23 09:20:16;;;;;;;19.27;12.43;;;;;;;;;;5054088;28;20037;-61
2023/01/23 09:22:42;;;;;;;16.52;11.60;;;;;;;;;;5055470;28;20032;-61
2023/01/23 09:25:08;;;;;;;17.65;11.55;;;;;;;;;;5055561;28;20376;-61
2023/01/23 09:27:34;;;;;;;17.10;12.32;;;;;;;;;;5055001;28;20441;-59
2023/01/23 09:30:00;;;;;;;17.30;12.13;;;;;;;;;;5054079;28;20475;-60
2023/01/23 09:32:26;;;;;;;18.77;12.65;;;;;;;;;;5055227;28;20037;-61
2023/01/23 09:34:53;;;;;;;15.45;11.95;;;;;;;;;;5054681;28;20049;-61
2023/01/23 09:37:22;;;;;;;16.13;11.63;;;;;;;;;;5054921;28;20049;-61
2023/01/23 09:39:48;;;;;;;17.05;11.45;;;;;;;;;;5054382;28;20048;-60
2023/01/23 09:42:21;;;;;;;17.70;10.75;;;;;;;;;;5055113;28;20448;-62
2023/01/23 09:44:50;;;;;;;18.65;12.50;;;;;;;;;;5054920;28;20068;-61
2023/01/23 09:47:19;;;;;;;15.48;11.30;;;;;;;;;;5054470;28;20436;-60
2023/01/23 09:49:48;;;;;;;15.27;10.98;;;;;;;;;;5053816;28;20087;-60
2023/01/23 09:52:16;;;;;;;18.05;11.52;;;;;;;;;;5054543;28;20376;-60
2023/01/23 09:54:46;;;;;;;16.15;11.52;;;;;;;;;;5054856;28;20037;-61
2023/01/23 09:57:20;;;;;;;14.13;11.27;;;;;;;;;;5053025;28;20056;-61
2023/01/23 09:59:58;;;;;;;15.00;10.25;;;;;;;;;;5053072;28;20047;-61
2023/01/23 10:02:25;;;;;;;14.38;10.60;;;;;;;;;;5053969;28;20135;-59
2023/01/23 10:04:52;;;;;;;15.88;11.45;;;;;;;;;;5054640;28;20045;-59
2023/01/23 10:07:24;;;;;;;14.77;10.18;;;;;;;;;;5054283;28;20037;-60
2023/01/23 10:09:50;;;;;;;15.57;11.32;;;;;;;;;;5051082;28;20064;-61
2023/01/23 10:12:16;;;;;;;14.70;10.80;;;;;;;;;;5054354;28;20148;-61
2023/01/23 10:15:12;;;;;;;16.27;9.98;;;;;;;;;;5054119;28;20046;-62
2023/01/23 10:17:44;;;;;;;16.40;11.25;;;;;;;;;;5033530;28;20037;-62
2023/01/23 10:20:13;;;;;;;14.43;10.07;;;;;;;;;;5050071;28;20028;-61
2023/01/23 10:22:50;;;;;;;13.52;9.65;;;;;;;;;;5054302;28;20032;-62
2023/01/23 10:25:24;;;;;;;13.65;10.05;;;;;;;;;;5052584;28;20052;-62
2023/01/23 10:27:51;;;;;;;14.00;8.75;;;;;;;;;;5051840;28;20052;-62
2023/01/23 10:30:28;;;;;;;15.13;10.35;;;;;;;;;;5053095;28;20033;-61
2023/01/23 10:33:13;;;;;;;13.25;10.10;;;;;;;;;;5053297;28;20398;-61
2023/01/23 10:35:46;;;;;;;15.10;10.40;;;;;;;;;;5051395;28;20057;-60
2023/01/23 10:38:19;;;;;;;15.25;9.55;;;;;;;;;;5050387;28;20124;-60
2023/01/23 10:43:32;;;;;;;12.73;9.93;;;;;;;;;;5052059;28;20048;-62
2023/01/23 10:45:59;;;;;;;14.52;10.63;;;;;;;;;;5053477;28;20032;-62
2023/01/23 10:48:31;;;;;;;13.93;9.82;;;;;;;;;;5052499;28;20048;-62
2023/01/23 10:50:58;;;;;;;14.60;9.80;;;;;;;;;;5052263;28;20045;-64
2023/01/23 10:53:24;;;;;;;13.05;9.50;;;;;;;;;;5052801;28;20522;-61
2023/01/23 10:55:51;;;;;;;12.65;9.70;;;;;;;;;;5051284;28;20449;-61
2023/01/23 10:58:29;;;;;;;16.05;10.15;;;;;;;;;;5053975;28;20049;-62
2023/01/23 11:00:55;;;;;;;12.68;9.48;;;;;;;;;;5055224;28;20369;-62
2023/01/23 11:03:21;;;;;;;12.55;10.02;;;;;;;;;;5056160;28;20111;-62
2023/01/23 11:06:07;;;;;;;14.18;9.63;;;;;;;;;;5053197;28;20457;-62
2023/01/23 11:08:37;;;;;;;12.13;9.02;;;;;;;;;;5054244;28;20432;-60
2023/01/23 11:11:17;;;;;;;14.30;9.90;;;;;;;;;;5055100;28;20049;-61
2023/01/23 11:13:44;;;;;;;13.48;8.93;;;;;;;;;;5052051;28;20109;-62
2023/01/23 11:16:18;;;;;;;12.05;8.80;;;;;;;;;;5053871;28;20056;-61
2023/01/23 11:18:48;;;;;;;14.43;9.90;;;;;;;;;;5052667;28;20090;-63
2023/01/23 11:21:22;;;;;;;14.30;9.68;;;;;;;;;;5052171;28;20103;-63
2023/01/23 11:23:48;;;;;;;12.82;9.60;;;;;;;;;;5053333;28;20094;-63
2023/01/23 11:26:32;;;;;;;13.05;8.95;;;;;;;;;;5052511;28;20041;-61
2023/01/23 11:28:59;;;;;;;12.52;9.00;;;;;;;;;;5048264;28;20419;-60
2023/01/23 11:31:26;;;;;;;11.85;8.20;;;;;;;;;;5048305;28;20037;-60
2023/01/23 11:33:55;;;;;;;12.00;8.68;;;;;;;;;;5051797;28;20435;-62
2023/01/23 11:36:39;;;;;;;11.15;8.55;;;;;;;;;;5050466;28;20067;-63
2023/01/23 11:39:15;;;;;;;15.48;8.07;;;;;;;;;;5051483;28;20057;-62
2023/01/23 11:41:43;;;;;;;10.07;7.65;;;;;;;;;;5051664;28;20045;-62
2023/01/23 11:44:12;;;;;;;11.23;8.27;;;;;;;;;;5052227;28;20040;-62
2023/01/23 11:46:54;;;;;;;9.05;7.30;;;;;;;;;;5051828;28;20052;-62
2023/01/23 11:49:22;;;;;;;13.13;7.90;;;;;;;;;;5050775;28;20045;-61
2023/01/23 11:52:04;;;;;;;10.25;7.10;;;;;;;;;;5052279;28;20056;-62
2023/01/23 11:54:42;;;;;;;11.88;7.53;;;;;;;;;;5041880;28;20527;-61
2023/01/23 11:57:20;;;;;;;10.07;7.10;;;;;;;;;;5049456;28;20483;-62
2023/01/23 11:59:58;;;;;;;9.25;7.57;;;;;;;;;;5051257;28;20025;-62
2023/01/23 12:02:27;;;;;;;10.65;6.13;;;;;;;;;;5051243;28;20364;-63
2023/01/23 12:04:56;;;;;;;10.30;7.13;;;;;;;;;;5052185;28;20040;-62
2023/01/23 12:07:25;;;;;;;9.63;7.28;;;;;;;;;;5053470;28;20084;-61
2023/01/23 12:09:58;;;;;;;9.68;6.75;;;;;;;;;;5048847;28;20116;-62
2023/01/23 12:12:24;;;;;;;8.75;6.13;;;;;;;;;;5050875;28;20095;-60
2023/01/23 12:15:05;;;;;;;10.00;6.78;;;;;;;;;;5051723;28;20122;-63
2023/01/23 12:17:39;;;;;;;10.95;6.35;;;;;;;;;;5049539;28;20040;-62
2023/01/23 12:20:11;;;;;;;11.55;6.78;;;;;;;;;;5051892;28;20460;-62
2023/01/23 12:22:45;;;;;;;14.18;6.80;;;;;;;;;;5047676;28;20029;-62
2023/01/23 12:25:14;;;;;;;8.15;6.10;;;;;;;;;;5047507;28;20045;-62
2023/01/23 12:27:42;;;;;;;10.00;6.50;;;;;;;;;;5052055;28;20167;-63
2023/01/23 12:30:09;;;;;;;8.98;6.20;;;;;;;;;;5048979;28;20036;-61
2023/01/23 12:32:35;;;;;;;11.50;6.80;;;;;;;;;;5051814;28;20048;-61
2023/01/23 12:35:11;;;;;;;8.43;5.82;;;;;;;;;;5051665;28;20049;-60
2023/01/23 12:37:47;;;;;;;10.18;6.40;;;;;;;;;;5050442;28;20045;-62
2023/01/23 12:40:21;;;;;;;8.77;5.68;;;;;;;;;;5049431;28;20468;-62
2023/01/23 12:42:50;;;;;;;8.35;5.70;;;;;;;;;;5051867;28;20037;-61
2023/01/23 12:45:29;;;;;;;8.63;5.88;;;;;;;;;;5050999;28;20461;-62
2023/01/23 12:48:01;;;;;;;10.82;6.22;;;;;;;;;;5049874;28;20037;-60
2023/01/23 12:50:46;;;;;;;10.05;5.82;;;;;;;;;;5051360;28;20175;-59
2023/01/23 12:53:13;;;;;;;9.10;6.28;;;;;;;;;;5049332;28;20060;-61
2023/01/23 12:55:57;;;;;;;9.82;6.50;;;;;;;;;;5051270;28;20033;-61
2023/01/23 12:58:26;;;;;;;10.15;6.63;;;;;;;;;;5050478;28;20468;-62
2023/01/23 13:01:06;;;;;;;9.00;6.50;;;;;;;;;;5049571;28;20098;-61
2023/01/23 13:04:08;;;;;;;9.40;5.88;;;;;;;;;;5049444;28;20032;-62
2023/01/23 13:06:41;;;;;;;7.32;5.53;;;;;;;;;;4971681;28;20105;-60
2023/01/23 13:09:06;;;;;;;8.90;6.20;;;;;;;;;;5034482;28;20110;-62
2023/01/23 13:11:41;;;;;;;8.20;5.60;;;;;;;;;;5051379;28;20037;-62
2023/01/23 13:14:24;;;;;;;9.80;6.03;;;;;;;;;;5051282;28;20040;-62
2023/01/23 13:16:51;;;;;;;9.48;5.80;;;;;;;;;;5049505;28;20130;-62
2023/01/23 13:22:12;;;;;;;8.13;5.70;;;;;;;;;;5048129;28;20060;-62
2023/01/23 13:27:34;;;;;;;9.20;6.30;;;;;;;;;;5048288;28;20464;-62
2023/01/23 13:30:01;;;;;;;9.88;5.82;;;;;;;;;;5049498;28;20072;-61
2023/01/23 13:32:30;;;;;;;8.25;5.75;;;;;;;;;;5050835;28;20040;-60
2023/01/23 13:34:57;;;;;;;8.00;5.53;;;;;;;;;;5050942;28;20140;-62
2023/01/23 13:37:31;;;;;;;8.90;5.68;;;;;;;;;;5050738;28;20524;-60
2023/01/23 13:40:16;;;;;;;9.95;6.20;;;;;;;;;;5053198;28;20460;-61
2023/01/23 13:42:42;;;;;;;8.23;6.03;;;;;;;;;;5053178;28;20171;-62
2023/01/23 13:45:14;;;;;;;8.80;6.70;;;;;;;;;;5034309;28;20311;-62
2023/01/23 13:50:34;;;;;;;9.32;5.90;;;;;;;;;;5050899;28;20139;-61
2023/01/23 13:58:38;;;;;;;8.52;5.63;;;;;;;;;;5041706;28;20056;-61
2023/01/23 14:06:45;;;;;;;7.72;5.85;;;;;;;;;;5042368;28;20048;-62
2023/01/23 14:09:21;;;;;;;11.50;6.90;;;;;;;;;;5052542;28;20043;-62
2023/01/23 14:11:49;;;;;;;9.00;5.85;;;;;;;;;;5054356;28;20059;-61
2023/01/23 14:16:59;;;;;;;10.75;6.35;;;;;;;;;;5038970;28;20052;-61
2023/01/23 14:19:29;;;;;;;9.75;6.28;;;;;;;;;;5052680;28;20032;-61
2023/01/23 14:21:58;;;;;;;9.18;6.03;;;;;;;;;;5052380;28;20452;-62
2023/01/23 14:24:28;;;;;;;10.10;6.47;;;;;;;;;;5054147;28;20048;-61
2023/01/23 14:27:01;;;;;;;9.10;6.32;;;;;;;;;;5051558;28;20394;-60
2023/01/23 14:29:27;;;;;;;9.45;6.90;;;;;;;;;;5052670;28;20051;-60
2023/01/23 14:31:56;;;;;;;10.52;6.80;;;;;;;;;;5054081;28;20329;-59
2023/01/23 14:34:23;;;;;;;9.63;6.65;;;;;;;;;;5053718;28;20089;-60
2023/01/23 14:36:51;;;;;;;11.23;7.25;;;;;;;;;;5069190;28;20126;-60
2023/01/23 14:39:18;;;;;;;9.57;6.63;;;;;;;;;;5052471;28;20041;-62
2023/01/23 14:41:44;;;;;;;12.35;7.43;;;;;;;;;;5054201;28;20108;-61
2023/01/23 14:44:17;;;;;;;8.95;6.88;;;;;;;;;;5054019;28;20029;-61
2023/01/23 14:46:43;;;;;;;9.93;7.07;;;;;;;;;;5053585;28;20075;-61
2023/01/23 14:49:09;;;;;;;10.10;7.40;;;;;;;;;;5052653;28;20100;-61
2023/01/23 14:51:35;;;;;;;9.18;6.43;;;;;;;;;;5046191;28;20037;-61
2023/01/23 14:54:19;;;;;;;9.80;6.38;;;;;;;;;;5046131;28;20124;-60
2023/01/23 14:56:46;;;;;;;11.02;7.82;;;;;;;;;;5045281;28;20052;-60
2023/01/23 14:59:25;;;;;;;10.15;6.97;;;;;;;;;;5045077;28;20030;-59
2023/01/23 15:02:01;;;;;;;10.63;7.38;;;;;;;;;;5046785;28;20033;-59
2023/01/23 15:04:28;;;;;;;10.52;7.82;;;;;;;;;;5051080;28;20417;-60
2023/01/23 15:06:59;;;;;;;10.68;8.18;;;;;;;;;;5042374;28;20127;-60